sensor_id;sensor_type;location;lat;lon;timestamp;P1;durP1;ratioP1;P2;durP2;ratioP2
7181;SDS011;3632;42.724;23.298;2023-11-18T00:00:31;1.10;;;1.00;;
7181;SDS011;3632;42.724;23.298;2023-11-18T00:02:58;1.47;;;1.30;;
7181;SDS011;3632;42.724;23.298;2023-11-18T00:05:24;1.33;;;1.20;;
7181;SDS011;3632;42.724;23.298;2023-11-18T00:07:51;1.83;;;1.40;;
7181;SDS011;3632;42.724;23.298;2023-11-18T00:10:19;2.40;;;1.40;;
7181;SDS011;3632;42.724;23.298;2023-11-18T00:12:46;2.67;;;1.80;;
7181;SDS011;3632;42.724;23.298;2023-11-18T00:15:12;2.03;;;1.40;;
7181;SDS011;3632;42.724;23.298;2023-11-18T00:17:42;1.50;;;1.40;;
7181;SDS011;3632;42.724;23.298;2023-11-18T00:20:09;1.43;;;1.27;;
7181;SDS011;3632;42.724;23.298;2023-11-18T00:22:38;1.70;;;1.07;;
7181;SDS011;3632;42.724;23.298;2023-11-18T00:25:07;1.40;;;1.30;;
7181;SDS011;3632;42.724;23.298;2023-11-18T00:27:38;1.57;;;1.20;;
7181;SDS011;3632;42.724;23.298;2023-11-18T00:30:05;1.50;;;1.40;;
7181;SDS011;3632;42.724;23.298;2023-11-18T00:32:35;0.90;;;0.90;;
7181;SDS011;3632;42.724;23.298;2023-11-18T00:35:03;1.30;;;1.10;;
7181;SDS011;3632;42.724;23.298;2023-11-18T00:37:31;1.30;;;1.20;;
7181;SDS011;3632;42.724;23.298;2023-11-18T00:39:58;1.40;;;1.30;;
7181;SDS011;3632;42.724;23.298;2023-11-18T00:42:24;1.77;;;1.47;;
7181;SDS011;3632;42.724;23.298;2023-11-18T00:44:52;1.40;;;1.30;;
7181;SDS011;3632;42.724;23.298;2023-11-18T00:47:20;1.30;;;1.20;;
7181;SDS011;3632;42.724;23.298;2023-11-18T00:49:48;1.80;;;1.70;;
7181;SDS011;3632;42.724;23.298;2023-11-18T00:52:14;1.63;;;1.53;;
7181;SDS011;3632;42.724;23.298;2023-11-18T00:54:41;2.80;;;1.53;;
7181;SDS011;3632;42.724;23.298;2023-11-18T00:57:08;1.70;;;1.60;;
7181;SDS011;3632;42.724;23.298;2023-11-18T00:59:35;1.47;;;1.30;;
7181;SDS011;3632;42.724;23.298;2023-11-18T01:02:03;2.83;;;1.50;;
7181;SDS011;3632;42.724;23.298;2023-11-18T01:04:30;3.57;;;1.30;;
7181;SDS011;3632;42.724;23.298;2023-11-18T01:06:58;1.40;;;1.30;;
7181;SDS011;3632;42.724;23.298;2023-11-18T01:09:25;1.30;;;1.13;;
7181;SDS011;3632;42.724;23.298;2023-11-18T01:11:52;1.37;;;1.27;;
7181;SDS011;3632;42.724;23.298;2023-11-18T01:14:19;1.60;;;1.50;;
7181;SDS011;3632;42.724;23.298;2023-11-18T01:16:48;1.30;;;1.20;;
7181;SDS011;3632;42.724;23.298;2023-11-18T01:19:16;1.30;;;1.20;;
7181;SDS011;3632;42.724;23.298;2023-11-18T01:21:43;1.40;;;1.30;;
7181;SDS011;3632;42.724;23.298;2023-11-18T01:24:10;2.50;;;1.50;;
7181;SDS011;3632;42.724;23.298;2023-11-18T01:26:36;1.50;;;1.40;;
7181;SDS011;3632;42.724;23.298;2023-11-18T01:29:03;1.33;;;1.23;;
7181;SDS011;3632;42.724;23.298;2023-11-18T01:31:30;1.50;;;1.40;;
7181;SDS011;3632;42.724;23.298;2023-11-18T01:33:57;1.60;;;1.50;;
7181;SDS011;3632;42.724;23.298;2023-11-18T01:36:26;2.17;;;1.70;;
7181;SDS011;3632;42.724;23.298;2023-11-18T01:38:53;2.10;;;1.90;;
7181;SDS011;3632;42.724;23.298;2023-11-18T01:41:20;1.83;;;1.70;;
7181;SDS011;3632;42.724;23.298;2023-11-18T01:43:47;2.00;;;1.80;;
7181;SDS011;3632;42.724;23.298;2023-11-18T01:46:13;2.43;;;2.20;;
7181;SDS011;3632;42.724;23.298;2023-11-18T01:48:44;1.80;;;1.70;;
7181;SDS011;3632;42.724;23.298;2023-11-18T01:51:11;1.50;;;1.40;;
7181;SDS011;3632;42.724;23.298;2023-11-18T01:53:41;1.43;;;1.33;;
7181;SDS011;3632;42.724;23.298;2023-11-18T01:56:10;1.60;;;1.50;;
7181;SDS011;3632;42.724;23.298;2023-11-18T01:58:37;1.77;;;1.67;;
7181;SDS011;3632;42.724;23.298;2023-11-18T02:01:06;1.77;;;1.67;;
7181;SDS011;3632;42.724;23.298;2023-11-18T02:03:33;1.60;;;1.50;;
7181;SDS011;3632;42.724;23.298;2023-11-18T02:06:00;1.60;;;1.50;;
7181;SDS011;3632;42.724;23.298;2023-11-18T02:08:29;2.07;;;1.90;;
7181;SDS011;3632;42.724;23.298;2023-11-18T02:11:00;1.70;;;1.60;;
7181;SDS011;3632;42.724;23.298;2023-11-18T02:13:36;1.60;;;1.50;;
7181;SDS011;3632;42.724;23.298;2023-11-18T02:16:05;2.00;;;1.83;;
7181;SDS011;3632;42.724;23.298;2023-11-18T02:18:35;1.70;;;1.60;;
7181;SDS011;3632;42.724;23.298;2023-11-18T02:21:05;1.83;;;1.70;;
7181;SDS011;3632;42.724;23.298;2023-11-18T02:23:33;2.70;;;2.00;;
7181;SDS011;3632;42.724;23.298;2023-11-18T02:26:02;1.93;;;1.80;;
7181;SDS011;3632;42.724;23.298;2023-11-18T02:28:29;2.20;;;2.00;;
7181;SDS011;3632;42.724;23.298;2023-11-18T02:30:56;2.20;;;2.00;;
7181;SDS011;3632;42.724;23.298;2023-11-18T02:33:30;2.20;;;2.07;;
7181;SDS011;3632;42.724;23.298;2023-11-18T02:36:06;2.47;;;1.70;;
7181;SDS011;3632;42.724;23.298;2023-11-18T02:38:41;2.50;;;2.20;;
7181;SDS011;3632;42.724;23.298;2023-11-18T02:41:16;2.40;;;2.17;;
7181;SDS011;3632;42.724;23.298;2023-11-18T02:43:44;2.40;;;2.20;;
7181;SDS011;3632;42.724;23.298;2023-11-18T02:46:12;2.50;;;2.30;;
7181;SDS011;3632;42.724;23.298;2023-11-18T02:48:39;2.40;;;2.20;;
7181;SDS011;3632;42.724;23.298;2023-11-18T02:51:07;2.77;;;2.40;;
7181;SDS011;3632;42.724;23.298;2023-11-18T02:53:34;2.53;;;2.33;;
7181;SDS011;3632;42.724;23.298;2023-11-18T02:56:01;2.57;;;2.37;;
7181;SDS011;3632;42.724;23.298;2023-11-18T02:58:31;2.97;;;2.33;;
7181;SDS011;3632;42.724;23.298;2023-11-18T03:00:58;2.60;;;2.40;;
7181;SDS011;3632;42.724;23.298;2023-11-18T03:03:25;2.50;;;2.30;;
7181;SDS011;3632;42.724;23.298;2023-11-18T03:05:52;3.47;;;2.63;;
7181;SDS011;3632;42.724;23.298;2023-11-18T03:08:20;2.50;;;2.30;;
7181;SDS011;3632;42.724;23.298;2023-11-18T03:10:46;2.60;;;2.40;;
7181;SDS011;3632;42.724;23.298;2023-11-18T03:13:15;2.77;;;2.40;;
7181;SDS011;3632;42.724;23.298;2023-11-18T03:15:44;2.67;;;2.47;;
7181;SDS011;3632;42.724;23.298;2023-11-18T03:18:12;2.57;;;2.30;;
7181;SDS011;3632;42.724;23.298;2023-11-18T03:20:40;2.50;;;2.30;;
7181;SDS011;3632;42.724;23.298;2023-11-18T03:23:07;2.67;;;2.47;;
7181;SDS011;3632;42.724;23.298;2023-11-18T03:25:34;3.13;;;2.83;;
7181;SDS011;3632;42.724;23.298;2023-11-18T03:28:01;2.73;;;2.53;;
7181;SDS011;3632;42.724;23.298;2023-11-18T03:30:27;2.33;;;2.13;;
7181;SDS011;3632;42.724;23.298;2023-11-18T03:32:56;2.47;;;2.27;;
7181;SDS011;3632;42.724;23.298;2023-11-18T03:35:23;2.70;;;2.50;;
7181;SDS011;3632;42.724;23.298;2023-11-18T03:37:50;2.70;;;2.50;;
7181;SDS011;3632;42.724;23.298;2023-11-18T03:40:16;3.83;;;2.07;;
7181;SDS011;3632;42.724;23.298;2023-11-18T03:42:43;2.60;;;2.40;;
7181;SDS011;3632;42.724;23.298;2023-11-18T03:45:11;3.10;;;2.40;;
7181;SDS011;3632;42.724;23.298;2023-11-18T03:47:39;2.63;;;2.43;;
7181;SDS011;3632;42.724;23.298;2023-11-18T03:50:08;2.80;;;2.60;;
7181;SDS011;3632;42.724;23.298;2023-11-18T03:52:35;2.63;;;2.43;;
7181;SDS011;3632;42.724;23.298;2023-11-18T03:55:03;2.70;;;2.40;;
7181;SDS011;3632;42.724;23.298;2023-11-18T03:57:30;2.77;;;2.57;;
7181;SDS011;3632;42.724;23.298;2023-11-18T03:59:56;2.80;;;2.60;;
7181;SDS011;3632;42.724;23.298;2023-11-18T04:02:23;5.13;;;2.60;;
7181;SDS011;3632;42.724;23.298;2023-11-18T04:04:50;3.13;;;2.70;;
7181;SDS011;3632;42.724;23.298;2023-11-18T04:07:18;2.80;;;2.50;;
7181;SDS011;3632;42.724;23.298;2023-11-18T04:09:46;2.60;;;2.40;;
7181;SDS011;3632;42.724;23.298;2023-11-18T04:12:13;2.53;;;2.30;;
7181;SDS011;3632;42.724;23.298;2023-11-18T04:14:41;2.70;;;2.50;;
7181;SDS011;3632;42.724;23.298;2023-11-18T04:17:07;3.07;;;2.77;;
7181;SDS011;3632;42.724;23.298;2023-11-18T04:19:34;2.70;;;2.50;;
7181;SDS011;3632;42.724;23.298;2023-11-18T04:22:02;3.40;;;3.10;;
7181;SDS011;3632;42.724;23.298;2023-11-18T04:24:31;3.57;;;2.73;;
7181;SDS011;3632;42.724;23.298;2023-11-18T04:26:57;2.70;;;2.50;;
7181;SDS011;3632;42.724;23.298;2023-11-18T04:29:24;2.90;;;2.70;;
7181;SDS011;3632;42.724;23.298;2023-11-18T04:31:51;2.50;;;2.30;;
7181;SDS011;3632;42.724;23.298;2023-11-18T04:34:18;2.97;;;2.77;;
7181;SDS011;3632;42.724;23.298;2023-11-18T04:36:45;2.50;;;2.30;;
7181;SDS011;3632;42.724;23.298;2023-11-18T04:39:11;2.80;;;2.60;;
7181;SDS011;3632;42.724;23.298;2023-11-18T04:41:42;2.57;;;2.37;;
7181;SDS011;3632;42.724;23.298;2023-11-18T04:44:08;3.00;;;2.80;;
7181;SDS011;3632;42.724;23.298;2023-11-18T04:46:35;3.23;;;2.93;;
7181;SDS011;3632;42.724;23.298;2023-11-18T04:49:02;2.80;;;2.60;;
7181;SDS011;3632;42.724;23.298;2023-11-18T04:51:30;3.30;;;3.00;;
7181;SDS011;3632;42.724;23.298;2023-11-18T04:53:58;2.97;;;2.63;;
7181;SDS011;3632;42.724;23.298;2023-11-18T04:56:24;3.07;;;2.77;;
7181;SDS011;3632;42.724;23.298;2023-11-18T04:58:52;3.17;;;2.87;;
7181;SDS011;3632;42.724;23.298;2023-11-18T05:01:19;3.17;;;2.70;;
7181;SDS011;3632;42.724;23.298;2023-11-18T05:03:46;2.30;;;2.10;;
7181;SDS011;3632;42.724;23.298;2023-11-18T05:06:13;2.77;;;2.50;;
7181;SDS011;3632;42.724;23.298;2023-11-18T05:08:39;2.30;;;2.10;;
7181;SDS011;3632;42.724;23.298;2023-11-18T05:11:06;2.57;;;2.37;;
7181;SDS011;3632;42.724;23.298;2023-11-18T05:13:33;2.77;;;2.20;;
7181;SDS011;3632;42.724;23.298;2023-11-18T05:16:01;2.40;;;2.00;;
7181;SDS011;3632;42.724;23.298;2023-11-18T05:18:28;2.20;;;2.00;;
7181;SDS011;3632;42.724;23.298;2023-11-18T05:20:59;2.40;;;2.20;;
7181;SDS011;3632;42.724;23.298;2023-11-18T05:23:26;2.37;;;2.17;;
7181;SDS011;3632;42.724;23.298;2023-11-18T05:25:54;3.07;;;2.30;;
7181;SDS011;3632;42.724;23.298;2023-11-18T05:28:21;3.97;;;2.47;;
7181;SDS011;3632;42.724;23.298;2023-11-18T05:30:49;2.47;;;2.27;;
7181;SDS011;3632;42.724;23.298;2023-11-18T05:33:17;2.37;;;2.10;;
7181;SDS011;3632;42.724;23.298;2023-11-18T05:35:44;2.93;;;2.20;;
7181;SDS011;3632;42.724;23.298;2023-11-18T05:38:14;1.70;;;1.60;;
7181;SDS011;3632;42.724;23.298;2023-11-18T05:40:43;2.17;;;1.97;;
7181;SDS011;3632;42.724;23.298;2023-11-18T05:43:20;1.90;;;1.80;;
7181;SDS011;3632;42.724;23.298;2023-11-18T05:45:47;1.97;;;1.77;;
7181;SDS011;3632;42.724;23.298;2023-11-18T05:48:41;2.17;;;1.97;;
7181;SDS011;3632;42.724;23.298;2023-11-18T05:51:08;2.20;;;2.00;;
7181;SDS011;3632;42.724;23.298;2023-11-18T05:53:38;2.57;;;2.00;;
7181;SDS011;3632;42.724;23.298;2023-11-18T05:56:06;2.00;;;1.83;;
7181;SDS011;3632;42.724;23.298;2023-11-18T05:58:33;1.70;;;1.60;;
7181;SDS011;3632;42.724;23.298;2023-11-18T06:01:00;1.63;;;1.50;;
7181;SDS011;3632;42.724;23.298;2023-11-18T06:03:28;1.43;;;1.33;;
7181;SDS011;3632;42.724;23.298;2023-11-18T06:05:56;1.93;;;1.50;;
7181;SDS011;3632;42.724;23.298;2023-11-18T06:08:23;2.20;;;2.00;;
7181;SDS011;3632;42.724;23.298;2023-11-18T06:10:50;1.43;;;1.33;;
7181;SDS011;3632;42.724;23.298;2023-11-18T06:13:21;2.37;;;1.40;;
7181;SDS011;3632;42.724;23.298;2023-11-18T06:15:48;1.60;;;1.20;;
7181;SDS011;3632;42.724;23.298;2023-11-18T06:18:16;1.50;;;1.40;;
7181;SDS011;3632;42.724;23.298;2023-11-18T06:20:43;1.67;;;1.53;;
7181;SDS011;3632;42.724;23.298;2023-11-18T06:23:11;1.57;;;1.47;;
7181;SDS011;3632;42.724;23.298;2023-11-18T06:25:40;2.07;;;1.43;;
7181;SDS011;3632;42.724;23.298;2023-11-18T06:28:07;2.00;;;1.47;;
7181;SDS011;3632;42.724;23.298;2023-11-18T06:30:34;1.40;;;1.30;;
7181;SDS011;3632;42.724;23.298;2023-11-18T06:33:01;1.13;;;1.13;;
7181;SDS011;3632;42.724;23.298;2023-11-18T06:35:28;1.77;;;1.40;;
7181;SDS011;3632;42.724;23.298;2023-11-18T06:37:55;1.40;;;1.30;;
7181;SDS011;3632;42.724;23.298;2023-11-18T06:40:25;1.40;;;1.30;;
7181;SDS011;3632;42.724;23.298;2023-11-18T06:42:52;1.30;;;1.20;;
7181;SDS011;3632;42.724;23.298;2023-11-18T06:45:26;1.87;;;1.50;;
7181;SDS011;3632;42.724;23.298;2023-11-18T06:47:53;1.20;;;1.10;;
7181;SDS011;3632;42.724;23.298;2023-11-18T06:50:20;1.30;;;1.20;;
7181;SDS011;3632;42.724;23.298;2023-11-18T06:52:49;1.17;;;1.13;;
7181;SDS011;3632;42.724;23.298;2023-11-18T06:55:16;2.27;;;1.37;;
7181;SDS011;3632;42.724;23.298;2023-11-18T06:57:44;1.40;;;1.30;;
7181;SDS011;3632;42.724;23.298;2023-11-18T07:00:12;1.57;;;1.47;;
7181;SDS011;3632;42.724;23.298;2023-11-18T07:02:40;4.80;;;1.70;;
7181;SDS011;3632;42.724;23.298;2023-11-18T07:05:07;1.07;;;1.03;;
7181;SDS011;3632;42.724;23.298;2023-11-18T07:07:34;1.30;;;1.20;;
7181;SDS011;3632;42.724;23.298;2023-11-18T07:10:02;1.83;;;1.50;;
7181;SDS011;3632;42.724;23.298;2023-11-18T07:12:31;1.53;;;1.43;;
7181;SDS011;3632;42.724;23.298;2023-11-18T07:15:04;2.70;;;1.50;;
7181;SDS011;3632;42.724;23.298;2023-11-18T07:17:31;1.70;;;1.30;;
7181;SDS011;3632;42.724;23.298;2023-11-18T07:19:59;1.63;;;1.53;;
7181;SDS011;3632;42.724;23.298;2023-11-18T07:22:26;2.43;;;1.60;;
7181;SDS011;3632;42.724;23.298;2023-11-18T07:24:54;2.40;;;1.60;;
7181;SDS011;3632;42.724;23.298;2023-11-18T07:27:21;2.73;;;1.30;;
7181;SDS011;3632;42.724;23.298;2023-11-18T07:29:47;1.40;;;1.30;;
7181;SDS011;3632;42.724;23.298;2023-11-18T07:32:15;1.30;;;1.20;;
7181;SDS011;3632;42.724;23.298;2023-11-18T07:34:44;1.53;;;1.40;;
7181;SDS011;3632;42.724;23.298;2023-11-18T07:37:11;1.70;;;1.60;;
7181;SDS011;3632;42.724;23.298;2023-11-18T07:39:38;2.20;;;1.37;;
7181;SDS011;3632;42.724;23.298;2023-11-18T07:42:10;3.83;;;1.90;;
7181;SDS011;3632;42.724;23.298;2023-11-18T07:44:38;3.67;;;1.80;;
7181;SDS011;3632;42.724;23.298;2023-11-18T07:47:05;1.97;;;1.77;;
7181;SDS011;3632;42.724;23.298;2023-11-18T07:49:34;2.27;;;1.50;;
7181;SDS011;3632;42.724;23.298;2023-11-18T07:52:01;1.50;;;1.40;;
7181;SDS011;3632;42.724;23.298;2023-11-18T07:54:28;1.53;;;1.37;;
7181;SDS011;3632;42.724;23.298;2023-11-18T07:56:55;1.60;;;1.50;;
7181;SDS011;3632;42.724;23.298;2023-11-18T07:59:22;3.30;;;2.03;;
7181;SDS011;3632;42.724;23.298;2023-11-18T08:01:49;1.93;;;1.60;;
7181;SDS011;3632;42.724;23.298;2023-11-18T08:04:18;1.50;;;1.40;;
7181;SDS011;3632;42.724;23.298;2023-11-18T08:06:50;1.70;;;1.60;;
7181;SDS011;3632;42.724;23.298;2023-11-18T08:09:18;1.93;;;1.40;;
7181;SDS011;3632;42.724;23.298;2023-11-18T08:11:48;1.37;;;1.20;;
7181;SDS011;3632;42.724;23.298;2023-11-18T08:14:15;1.20;;;1.10;;
7181;SDS011;3632;42.724;23.298;2023-11-18T08:16:42;1.57;;;1.20;;
7181;SDS011;3632;42.724;23.298;2023-11-18T08:19:09;3.03;;;2.00;;
7181;SDS011;3632;42.724;23.298;2023-11-18T08:21:36;1.63;;;1.40;;
7181;SDS011;3632;42.724;23.298;2023-11-18T08:24:08;2.20;;;2.00;;
7181;SDS011;3632;42.724;23.298;2023-11-18T08:26:35;4.13;;;1.60;;
7181;SDS011;3632;42.724;23.298;2023-11-18T08:29:02;4.83;;;2.67;;
7181;SDS011;3632;42.724;23.298;2023-11-18T08:31:29;2.53;;;2.10;;
7181;SDS011;3632;42.724;23.298;2023-11-18T08:33:56;3.33;;;1.77;;
7181;SDS011;3632;42.724;23.298;2023-11-18T08:36:23;1.70;;;1.57;;
7181;SDS011;3632;42.724;23.298;2023-11-18T08:38:53;4.30;;;2.67;;
7181;SDS011;3632;42.724;23.298;2023-11-18T08:41:24;1.50;;;1.40;;
7181;SDS011;3632;42.724;23.298;2023-11-18T08:43:51;1.70;;;1.53;;
7181;SDS011;3632;42.724;23.298;2023-11-18T08:46:24;1.93;;;1.50;;
7181;SDS011;3632;42.724;23.298;2023-11-18T08:48:51;3.63;;;2.27;;
7181;SDS011;3632;42.724;23.298;2023-11-18T08:51:22;2.70;;;2.13;;
7181;SDS011;3632;42.724;23.298;2023-11-18T08:53:51;4.00;;;2.33;;
7181;SDS011;3632;42.724;23.298;2023-11-18T08:56:19;3.10;;;2.10;;
7181;SDS011;3632;42.724;23.298;2023-11-18T08:58:58;2.47;;;2.07;;
7181;SDS011;3632;42.724;23.298;2023-11-18T09:01:25;1.77;;;1.50;;
7181;SDS011;3632;42.724;23.298;2023-11-18T09:03:53;2.03;;;1.83;;
7181;SDS011;3632;42.724;23.298;2023-11-18T09:06:22;2.53;;;2.10;;
7181;SDS011;3632;42.724;23.298;2023-11-18T09:08:53;1.93;;;1.80;;
7181;SDS011;3632;42.724;23.298;2023-11-18T09:11:23;2.10;;;1.90;;
7181;SDS011;3632;42.724;23.298;2023-11-18T09:13:52;2.27;;;2.07;;
7181;SDS011;3632;42.724;23.298;2023-11-18T09:16:23;2.10;;;1.90;;
7181;SDS011;3632;42.724;23.298;2023-11-18T09:18:54;3.80;;;2.40;;
7181;SDS011;3632;42.724;23.298;2023-11-18T09:21:24;3.13;;;2.47;;
7181;SDS011;3632;42.724;23.298;2023-11-18T09:23:54;2.70;;;2.50;;
7181;SDS011;3632;42.724;23.298;2023-11-18T09:26:21;1.40;;;1.30;;
7181;SDS011;3632;42.724;23.298;2023-11-18T09:28:55;1.77;;;1.43;;
7181;SDS011;3632;42.724;23.298;2023-11-18T09:31:23;2.50;;;1.40;;
7181;SDS011;3632;42.724;23.298;2023-11-18T09:33:50;4.27;;;1.80;;
7181;SDS011;3632;42.724;23.298;2023-11-18T09:36:18;1.73;;;1.63;;
7181;SDS011;3632;42.724;23.298;2023-11-18T09:38:46;2.00;;;1.33;;
7181;SDS011;3632;42.724;23.298;2023-11-18T09:41:14;1.80;;;1.70;;
7181;SDS011;3632;42.724;23.298;2023-11-18T09:43:41;1.70;;;1.50;;
7181;SDS011;3632;42.724;23.298;2023-11-18T09:46:10;3.30;;;1.80;;
7181;SDS011;3632;42.724;23.298;2023-11-18T09:48:43;1.93;;;1.73;;
7181;SDS011;3632;42.724;23.298;2023-11-18T09:51:15;2.37;;;2.03;;
7181;SDS011;3632;42.724;23.298;2023-11-18T09:53:48;1.80;;;1.70;;
7181;SDS011;3632;42.724;23.298;2023-11-18T09:56:18;1.93;;;1.70;;
7181;SDS011;3632;42.724;23.298;2023-11-18T09:58:54;2.60;;;1.80;;
7181;SDS011;3632;42.724;23.298;2023-11-18T10:01:34;1.87;;;1.60;;
7181;SDS011;3632;42.724;23.298;2023-11-18T10:04:06;3.80;;;1.60;;
7181;SDS011;3632;42.724;23.298;2023-11-18T10:06:35;3.23;;;1.53;;
7181;SDS011;3632;42.724;23.298;2023-11-18T10:09:06;2.37;;;1.90;;
7181;SDS011;3632;42.724;23.298;2023-11-18T10:11:42;1.57;;;1.47;;
7181;SDS011;3632;42.724;23.298;2023-11-18T10:14:11;1.60;;;1.50;;
7181;SDS011;3632;42.724;23.298;2023-11-18T10:16:43;1.70;;;1.60;;
7181;SDS011;3632;42.724;23.298;2023-11-18T10:19:13;1.43;;;1.20;;
7181;SDS011;3632;42.724;23.298;2023-11-18T10:21:42;5.60;;;1.67;;
7181;SDS011;3632;42.724;23.298;2023-11-18T10:24:13;2.00;;;1.80;;
7181;SDS011;3632;42.724;23.298;2023-11-18T10:26:44;1.60;;;1.50;;
7181;SDS011;3632;42.724;23.298;2023-11-18T10:29:15;1.50;;;1.40;;
7181;SDS011;3632;42.724;23.298;2023-11-18T10:31:43;6.50;;;2.43;;
7181;SDS011;3632;42.724;23.298;2023-11-18T10:34:11;1.50;;;1.40;;
7181;SDS011;3632;42.724;23.298;2023-11-18T10:36:58;2.90;;;1.53;;
7181;SDS011;3632;42.724;23.298;2023-11-18T10:39:27;1.53;;;1.40;;
7181;SDS011;3632;42.724;23.298;2023-11-18T10:42:00;2.30;;;1.57;;
7181;SDS011;3632;42.724;23.298;2023-11-18T10:44:27;2.93;;;1.30;;
7181;SDS011;3632;42.724;23.298;2023-11-18T10:46:54;1.90;;;1.57;;
7181;SDS011;3632;42.724;23.298;2023-11-18T10:49:25;1.53;;;1.43;;
7181;SDS011;3632;42.724;23.298;2023-11-18T10:51:53;1.60;;;1.50;;
7181;SDS011;3632;42.724;23.298;2023-11-18T10:54:22;2.13;;;1.50;;
7181;SDS011;3632;42.724;23.298;2023-11-18T10:56:52;2.70;;;1.67;;
7181;SDS011;3632;42.724;23.298;2023-11-18T10:59:21;2.57;;;1.40;;
7181;SDS011;3632;42.724;23.298;2023-11-18T11:01:48;2.80;;;1.50;;
7181;SDS011;3632;42.724;23.298;2023-11-18T11:04:16;1.73;;;1.40;;
7181;SDS011;3632;42.724;23.298;2023-11-18T11:06:47;1.90;;;1.70;;
7181;SDS011;3632;42.724;23.298;2023-11-18T11:09:18;1.60;;;1.50;;
7181;SDS011;3632;42.724;23.298;2023-11-18T11:11:50;2.63;;;1.50;;
7181;SDS011;3632;42.724;23.298;2023-11-18T11:14:20;1.90;;;1.57;;
7181;SDS011;3632;42.724;23.298;2023-11-18T11:16:51;2.27;;;1.97;;
7181;SDS011;3632;42.724;23.298;2023-11-18T11:19:24;2.10;;;1.90;;
7181;SDS011;3632;42.724;23.298;2023-11-18T11:22:00;2.10;;;1.50;;
7181;SDS011;3632;42.724;23.298;2023-11-18T11:24:35;1.93;;;1.73;;
7181;SDS011;3632;42.724;23.298;2023-11-18T11:27:21;1.60;;;1.50;;
7181;SDS011;3632;42.724;23.298;2023-11-18T11:30:02;2.13;;;1.93;;
7181;SDS011;3632;42.724;23.298;2023-11-18T11:32:35;2.17;;;1.80;;
7181;SDS011;3632;42.724;23.298;2023-11-18T11:35:14;2.40;;;1.50;;
7181;SDS011;3632;42.724;23.298;2023-11-18T11:37:48;1.67;;;1.57;;
7181;SDS011;3632;42.724;23.298;2023-11-18T11:40:16;3.83;;;1.80;;
7181;SDS011;3632;42.724;23.298;2023-11-18T11:42:47;3.47;;;2.33;;
7181;SDS011;3632;42.724;23.298;2023-11-18T11:45:20;3.13;;;2.60;;
7181;SDS011;3632;42.724;23.298;2023-11-18T11:47:53;3.60;;;1.90;;
7181;SDS011;3632;42.724;23.298;2023-11-18T11:50:38;1.60;;;1.40;;
7181;SDS011;3632;42.724;23.298;2023-11-18T11:53:21;2.30;;;1.73;;
7181;SDS011;3632;42.724;23.298;2023-11-18T11:55:52;4.97;;;2.00;;
7181;SDS011;3632;42.724;23.298;2023-11-18T11:58:30;3.60;;;2.00;;
7181;SDS011;3632;42.724;23.298;2023-11-18T12:00:58;2.53;;;1.73;;
7181;SDS011;3632;42.724;23.298;2023-11-18T12:03:32;4.73;;;2.37;;
7181;SDS011;3632;42.724;23.298;2023-11-18T12:06:01;2.53;;;2.33;;
7181;SDS011;3632;42.724;23.298;2023-11-18T12:08:34;2.77;;;2.20;;
7181;SDS011;3632;42.724;23.298;2023-11-18T12:11:02;3.10;;;2.20;;
7181;SDS011;3632;42.724;23.298;2023-11-18T12:13:34;6.80;;;2.20;;
7181;SDS011;3632;42.724;23.298;2023-11-18T12:16:05;2.10;;;1.90;;
7181;SDS011;3632;42.724;23.298;2023-11-18T12:18:35;2.27;;;2.07;;
7181;SDS011;3632;42.724;23.298;2023-11-18T12:21:02;2.47;;;2.00;;
7181;SDS011;3632;42.724;23.298;2023-11-18T12:23:30;2.00;;;1.80;;
7181;SDS011;3632;42.724;23.298;2023-11-18T12:26:00;1.67;;;1.53;;
7181;SDS011;3632;42.724;23.298;2023-11-18T12:28:28;4.23;;;3.23;;
7181;SDS011;3632;42.724;23.298;2023-11-18T12:30:59;2.07;;;1.70;;
7181;SDS011;3632;42.724;23.298;2023-11-18T12:36:40;2.33;;;2.13;;
7181;SDS011;3632;42.724;23.298;2023-11-18T12:45:42;4.20;;;1.40;;
7181;SDS011;3632;42.724;23.298;2023-11-18T12:48:09;1.50;;;1.40;;
7181;SDS011;3632;42.724;23.298;2023-11-18T12:50:41;1.50;;;1.40;;
7181;SDS011;3632;42.724;23.298;2023-11-18T12:53:10;2.57;;;2.00;;
7181;SDS011;3632;42.724;23.298;2023-11-18T12:55:40;2.57;;;1.70;;
7181;SDS011;3632;42.724;23.298;2023-11-18T12:58:08;2.53;;;1.70;;
7181;SDS011;3632;42.724;23.298;2023-11-18T13:00:37;1.70;;;1.60;;
7181;SDS011;3632;42.724;23.298;2023-11-18T13:03:08;1.90;;;1.80;;
7181;SDS011;3632;42.724;23.298;2023-11-18T13:05:36;2.40;;;2.20;;
7181;SDS011;3632;42.724;23.298;2023-11-18T13:08:03;2.20;;;2.00;;
7181;SDS011;3632;42.724;23.298;2023-11-18T13:10:30;3.17;;;2.47;;
7181;SDS011;3632;42.724;23.298;2023-11-18T13:12:57;4.37;;;2.30;;
7181;SDS011;3632;42.724;23.298;2023-11-18T13:15:27;2.50;;;2.30;;
7181;SDS011;3632;42.724;23.298;2023-11-18T13:17:57;2.03;;;1.87;;
7181;SDS011;3632;42.724;23.298;2023-11-18T13:20:25;2.23;;;2.03;;
7181;SDS011;3632;42.724;23.298;2023-11-18T13:22:52;2.40;;;2.20;;
7181;SDS011;3632;42.724;23.298;2023-11-18T13:25:20;4.27;;;2.27;;
7181;SDS011;3632;42.724;23.298;2023-11-18T13:27:48;2.53;;;2.20;;
7181;SDS011;3632;42.724;23.298;2023-11-18T13:30:16;2.90;;;2.60;;
7181;SDS011;3632;42.724;23.298;2023-11-18T13:32:47;2.67;;;2.43;;
7181;SDS011;3632;42.724;23.298;2023-11-18T13:35:15;3.20;;;2.17;;
7181;SDS011;3632;42.724;23.298;2023-11-18T13:37:45;2.50;;;2.30;;
7181;SDS011;3632;42.724;23.298;2023-11-18T13:40:14;2.60;;;2.40;;
7181;SDS011;3632;42.724;23.298;2023-11-18T13:42:45;3.23;;;2.40;;
7181;SDS011;3632;42.724;23.298;2023-11-18T13:45:12;2.93;;;2.50;;
7181;SDS011;3632;42.724;23.298;2023-11-18T13:47:50;2.50;;;2.30;;
7181;SDS011;3632;42.724;23.298;2023-11-18T13:50:28;2.53;;;2.20;;
7181;SDS011;3632;42.724;23.298;2023-11-18T13:52:59;3.17;;;2.10;;
7181;SDS011;3632;42.724;23.298;2023-11-18T13:55:27;2.63;;;2.43;;
7181;SDS011;3632;42.724;23.298;2023-11-18T13:58:00;3.57;;;2.60;;
7181;SDS011;3632;42.724;23.298;2023-11-18T14:00:30;2.47;;;2.27;;
7181;SDS011;3632;42.724;23.298;2023-11-18T14:03:01;2.70;;;2.50;;
7181;SDS011;3632;42.724;23.298;2023-11-18T14:05:32;3.57;;;2.53;;
7181;SDS011;3632;42.724;23.298;2023-11-18T14:08:00;2.80;;;2.50;;
7181;SDS011;3632;42.724;23.298;2023-11-18T14:10:33;2.60;;;2.40;;
7181;SDS011;3632;42.724;23.298;2023-11-18T14:13:03;2.50;;;2.30;;
7181;SDS011;3632;42.724;23.298;2023-11-18T14:15:40;2.60;;;2.40;;
7181;SDS011;3632;42.724;23.298;2023-11-18T14:18:10;4.40;;;2.63;;
7181;SDS011;3632;42.724;23.298;2023-11-18T14:20:38;3.70;;;2.23;;
7181;SDS011;3632;42.724;23.298;2023-11-18T14:23:05;3.07;;;2.70;;
7181;SDS011;3632;42.724;23.298;2023-11-18T14:25:33;3.50;;;2.53;;
7181;SDS011;3632;42.724;23.298;2023-11-18T14:28:00;2.90;;;2.60;;
7181;SDS011;3632;42.724;23.298;2023-11-18T14:30:30;2.93;;;2.70;;
7181;SDS011;3632;42.724;23.298;2023-11-18T14:32:56;3.20;;;2.90;;
7181;SDS011;3632;42.724;23.298;2023-11-18T14:35:24;3.20;;;2.90;;
7181;SDS011;3632;42.724;23.298;2023-11-18T14:37:51;3.77;;;3.20;;
7181;SDS011;3632;42.724;23.298;2023-11-18T14:40:18;4.13;;;3.37;;
7181;SDS011;3632;42.724;23.298;2023-11-18T14:42:45;4.20;;;3.17;;
7181;SDS011;3632;42.724;23.298;2023-11-18T14:45:13;3.20;;;2.90;;
7181;SDS011;3632;42.724;23.298;2023-11-18T14:47:41;3.13;;;2.60;;
7181;SDS011;3632;42.724;23.298;2023-11-18T14:50:10;3.20;;;2.90;;
7181;SDS011;3632;42.724;23.298;2023-11-18T14:52:44;4.63;;;3.00;;
7181;SDS011;3632;42.724;23.298;2023-11-18T14:55:11;3.30;;;2.93;;
7181;SDS011;3632;42.724;23.298;2023-11-18T14:57:38;3.20;;;2.90;;
7181;SDS011;3632;42.724;23.298;2023-11-18T15:00:06;3.57;;;2.90;;
7181;SDS011;3632;42.724;23.298;2023-11-18T15:02:34;5.00;;;3.00;;
7181;SDS011;3632;42.724;23.298;2023-11-18T15:05:01;3.83;;;2.83;;
7181;SDS011;3632;42.724;23.298;2023-11-18T15:07:30;3.47;;;3.10;;
7181;SDS011;3632;42.724;23.298;2023-11-18T15:09:58;4.40;;;3.27;;
7181;SDS011;3632;42.724;23.298;2023-11-18T15:12:25;2.80;;;2.60;;
7181;SDS011;3632;42.724;23.298;2023-11-18T15:14:51;3.13;;;2.83;;
7181;SDS011;3632;42.724;23.298;2023-11-18T15:17:18;3.90;;;2.63;;
7181;SDS011;3632;42.724;23.298;2023-11-18T15:19:45;3.97;;;2.80;;